sensor_id;sensor_type;location;lat;lon;timestamp;temperature;humidity
65291;SHT30;51893;59.754;10.110;2022-12-07T00:01:40;-2.30;83.50
65291;SHT30;51893;59.754;10.110;2022-12-07T00:04:12;-2.30;83.49
65291;SHT30;51893;59.754;10.110;2022-12-07T00:06:43;-2.26;83.48
65291;SHT30;51893;59.754;10.110;2022-12-07T00:09:15;-2.23;83.42
65291;SHT30;51893;59.754;10.110;2022-12-07T00:11:43;-2.27;83.36
65291;SHT30;51893;59.754;10.110;2022-12-07T00:14:15;-2.33;83.35
65291;SHT30;51893;59.754;10.110;2022-12-07T00:16:43;-2.38;83.55
65291;SHT30;51893;59.754;10.110;2022-12-07T00:19:11;-2.38;83.60
65291;SHT30;51893;59.754;10.110;2022-12-07T00:21:40;-2.36;83.60
65291;SHT30;51893;59.754;10.110;2022-12-07T00:24:08;-2.30;83.54
65291;SHT30;51893;59.754;10.110;2022-12-07T00:26:37;-2.28;83.42
65291;SHT30;51893;59.754;10.110;2022-12-07T00:29:20;-2.30;83.41
65291;SHT30;51893;59.754;10.110;2022-12-07T00:31:50;-2.36;83.53
65291;SHT30;51893;59.754;10.110;2022-12-07T00:34:20;-2.45;83.83
65291;SHT30;51893;59.754;10.110;2022-12-07T00:36:48;-2.53;84.26
65291;SHT30;51893;59.754;10.110;2022-12-07T00:39:16;-2.55;84.40
65291;SHT30;51893;59.754;10.110;2022-12-07T00:41:43;-2.56;84.60
65291;SHT30;51893;59.754;10.110;2022-12-07T00:44:10;-2.61;84.83
65291;SHT30;51893;59.754;10.110;2022-12-07T00:46:39;-2.61;84.94
65291;SHT30;51893;59.754;10.110;2022-12-07T00:49:06;-2.61;84.98
65291;SHT30;51893;59.754;10.110;2022-12-07T00:51:32;-2.59;85.01
65291;SHT30;51893;59.754;10.110;2022-12-07T00:53:59;-2.55;84.94
65291;SHT30;51893;59.754;10.110;2022-12-07T00:56:27;-2.52;84.80
65291;SHT30;51893;59.754;10.110;2022-12-07T00:59:01;-2.49;84.71
65291;SHT30;51893;59.754;10.110;2022-12-07T01:01:31;-2.49;84.61
65291;SHT30;51893;59.754;10.110;2022-12-07T01:04:02;-2.53;84.66
65291;SHT30;51893;59.754;10.110;2022-12-07T01:06:30;-2.57;84.77
65291;SHT30;51893;59.754;10.110;2022-12-07T01:08:57;-2.56;84.76
65291;SHT30;51893;59.754;10.110;2022-12-07T01:11:25;-2.52;84.68
65291;SHT30;51893;59.754;10.110;2022-12-07T01:13:56;-2.44;84.65
65291;SHT30;51893;59.754;10.110;2022-12-07T01:16:25;-2.35;84.49
65291;SHT30;51893;59.754;10.110;2022-12-07T01:18:55;-2.32;84.43
65291;SHT30;51893;59.754;10.110;2022-12-07T01:21:25;-2.21;84.42
65291;SHT30;51893;59.754;10.110;2022-12-07T01:23:56;-2.18;84.16
65291;SHT30;51893;59.754;10.110;2022-12-07T01:26:24;-2.26;84.19
65291;SHT30;51893;59.754;10.110;2022-12-07T01:28:52;-2.36;84.28
65291;SHT30;51893;59.754;10.110;2022-12-07T01:31:21;-2.41;84.41
65291;SHT30;51893;59.754;10.110;2022-12-07T01:33:51;-2.44;84.41
65291;SHT30;51893;59.754;10.110;2022-12-07T01:36:23;-2.46;84.42
65291;SHT30;51893;59.754;10.110;2022-12-07T01:38:54;-2.44;84.39
65291;SHT30;51893;59.754;10.110;2022-12-07T01:41:28;-2.37;84.34
65291;SHT30;51893;59.754;10.110;2022-12-07T01:44:07;-2.30;84.01
65291;SHT30;51893;59.754;10.110;2022-12-07T01:49:36;-2.40;83.48
65291;SHT30;51893;59.754;10.110;2022-12-07T01:54:59;-2.56;83.50
65291;SHT30;51893;59.754;10.110;2022-12-07T01:57:32;-2.61;83.52
65291;SHT30;51893;59.754;10.110;2022-12-07T02:00:08;-2.66;83.62
65291;SHT30;51893;59.754;10.110;2022-12-07T02:02:41;-2.70;83.61
65291;SHT30;51893;59.754;10.110;2022-12-07T02:05:16;-2.77;83.58
65291;SHT30;51893;59.754;10.110;2022-12-07T02:07:44;-2.83;83.74
65291;SHT30;51893;59.754;10.110;2022-12-07T02:10:18;-2.91;83.75
65291;SHT30;51893;59.754;10.110;2022-12-07T02:12:50;-2.93;83.83
65291;SHT30;51893;59.754;10.110;2022-12-07T02:16:13;-2.88;83.59
65291;SHT30;51893;59.754;10.110;2022-12-07T02:18:32;-2.89;83.27
65291;SHT30;51893;59.754;10.110;2022-12-07T02:21:39;-2.88;82.79
65291;SHT30;51893;59.754;10.110;2022-12-07T02:24:46;-2.90;82.77
65291;SHT30;51893;59.754;10.110;2022-12-07T02:30:19;-3.00;82.89
65291;SHT30;51893;59.754;10.110;2022-12-07T02:32:54;-3.10;83.04
65291;SHT30;51893;59.754;10.110;2022-12-07T02:35:39;-3.14;83.42
65291;SHT30;51893;59.754;10.110;2022-12-07T02:38:43;-3.12;83.69
65291;SHT30;51893;59.754;10.110;2022-12-07T02:41:55;-3.16;84.05
65291;SHT30;51893;59.754;10.110;2022-12-07T02:44:28;-3.19;83.84
65291;SHT30;51893;59.754;10.110;2022-12-07T02:46:59;-3.19;83.82
65291;SHT30;51893;59.754;10.110;2022-12-07T02:49:31;-3.18;83.65
65291;SHT30;51893;59.754;10.110;2022-12-07T02:51:58;-3.27;83.50
65291;SHT30;51893;59.754;10.110;2022-12-07T02:54:25;-3.29;83.38
65291;SHT30;51893;59.754;10.110;2022-12-07T02:57:04;-3.37;83.33
65291;SHT30;51893;59.754;10.110;2022-12-07T02:59:42;-3.40;83.78
65291;SHT30;51893;59.754;10.110;2022-12-07T03:15:58;-3.37;83.94
65291;SHT30;51893;59.754;10.110;2022-12-07T03:18:34;-3.46;84.12
65291;SHT30;51893;59.754;10.110;2022-12-07T03:21:08;-3.53;84.17
65291;SHT30;51893;59.754;10.110;2022-12-07T03:23:42;-3.55;84.21
65291;SHT30;51893;59.754;10.110;2022-12-07T03:26:17;-3.56;84.37
65291;SHT30;51893;59.754;10.110;2022-12-07T03:28:50;-3.53;84.23
65291;SHT30;51893;59.754;10.110;2022-12-07T03:31:23;-3.57;84.12
65291;SHT30;51893;59.754;10.110;2022-12-07T03:34:18;-3.60;84.07
65291;SHT30;51893;59.754;10.110;2022-12-07T03:37:00;-3.62;83.96
65291;SHT30;51893;59.754;10.110;2022-12-07T03:42:11;-3.58;84.09
65291;SHT30;51893;59.754;10.110;2022-12-07T03:44:38;-3.57;83.87
65291;SHT30;51893;59.754;10.110;2022-12-07T03:47:13;-3.56;83.62
65291;SHT30;51893;59.754;10.110;2022-12-07T03:50:13;-3.59;83.52
65291;SHT30;51893;59.754;10.110;2022-12-07T03:53:17;-3.67;83.79
65291;SHT30;51893;59.754;10.110;2022-12-07T03:55:50;-3.74;83.83
65291;SHT30;51893;59.754;10.110;2022-12-07T03:58:19;-3.84;84.08
65291;SHT30;51893;59.754;10.110;2022-12-07T04:00:49;-3.87;84.24
65291;SHT30;51893;59.754;10.110;2022-12-07T04:03:17;-3.92;83.99
65291;SHT30;51893;59.754;10.110;2022-12-07T04:05:44;-3.95;83.98
65291;SHT30;51893;59.754;10.110;2022-12-07T04:08:11;-3.93;84.04
65291;SHT30;51893;59.754;10.110;2022-12-07T04:10:38;-3.94;84.04
65291;SHT30;51893;59.754;10.110;2022-12-07T04:13:05;-3.94;84.14
65291;SHT30;51893;59.754;10.110;2022-12-07T04:15:31;-3.90;83.97
65291;SHT30;51893;59.754;10.110;2022-12-07T04:17:58;-3.89;83.84
65291;SHT30;51893;59.754;10.110;2022-12-07T04:20:24;-3.87;83.72
65291;SHT30;51893;59.754;10.110;2022-12-07T04:22:51;-3.95;83.72
65291;SHT30;51893;59.754;10.110;2022-12-07T04:25:18;-4.01;83.99
65291;SHT30;51893;59.754;10.110;2022-12-07T04:27:45;-4.03;84.08
65291;SHT30;51893;59.754;10.110;2022-12-07T04:30:12;-4.01;84.09
65291;SHT30;51893;59.754;10.110;2022-12-07T04:32:38;-3.98;83.92
65291;SHT30;51893;59.754;10.110;2022-12-07T04:35:05;-3.95;83.79
65291;SHT30;51893;59.754;10.110;2022-12-07T04:37:33;-3.92;83.67
65291;SHT30;51893;59.754;10.110;2022-12-07T04:39:59;-3.85;83.50
65291;SHT30;51893;59.754;10.110;2022-12-07T04:42:27;-3.93;83.32
65291;SHT30;51893;59.754;10.110;2022-12-07T04:44:53;-3.93;83.38
65291;SHT30;51893;59.754;10.110;2022-12-07T04:47:20;-3.95;83.25
65291;SHT30;51893;59.754;10.110;2022-12-07T04:49:46;-3.97;83.18
65291;SHT30;51893;59.754;10.110;2022-12-07T04:52:13;-3.92;83.17
65291;SHT30;51893;59.754;10.110;2022-12-07T04:54:39;-3.91;83.04
65291;SHT30;51893;59.754;10.110;2022-12-07T04:57:06;-3.89;83.03
65291;SHT30;51893;59.754;10.110;2022-12-07T04:59:32;-3.92;82.86
65291;SHT30;51893;59.754;10.110;2022-12-07T05:01:59;-3.97;82.77
65291;SHT30;51893;59.754;10.110;2022-12-07T05:04:25;-4.02;82.86
65291;SHT30;51893;59.754;10.110;2022-12-07T05:06:52;-4.07;82.92
65291;SHT30;51893;59.754;10.110;2022-12-07T05:09:19;-4.10;83.01
65291;SHT30;51893;59.754;10.110;2022-12-07T05:11:45;-4.13;83.00
65291;SHT30;51893;59.754;10.110;2022-12-07T05:14:16;-4.14;83.00
65291;SHT30;51893;59.754;10.110;2022-12-07T05:16:46;-4.17;83.00
65291;SHT30;51893;59.754;10.110;2022-12-07T05:19:16;-4.21;83.08
65291;SHT30;51893;59.754;10.110;2022-12-07T05:21:45;-4.22;83.10
65291;SHT30;51893;59.754;10.110;2022-12-07T05:24:13;-4.21;83.06
65291;SHT30;51893;59.754;10.110;2022-12-07T05:26:42;-4.26;83.05
65291;SHT30;51893;59.754;10.110;2022-12-07T05:29:13;-4.30;83.26
65291;SHT30;51893;59.754;10.110;2022-12-07T05:31:42;-4.29;83.45
65291;SHT30;51893;59.754;10.110;2022-12-07T05:34:10;-4.35;83.67
65291;SHT30;51893;59.754;10.110;2022-12-07T05:36:38;-4.42;83.71
65291;SHT30;51893;59.754;10.110;2022-12-07T05:39:04;-4.51;83.73
65291;SHT30;51893;59.754;10.110;2022-12-07T05:41:31;-4.58;83.90
65291;SHT30;51893;59.754;10.110;2022-12-07T05:44:16;-4.63;84.00
65291;SHT30;51893;59.754;10.110;2022-12-07T05:46:43;-4.69;84.15
65291;SHT30;51893;59.754;10.110;2022-12-07T05:49:09;-4.69;84.19
65291;SHT30;51893;59.754;10.110;2022-12-07T05:51:36;-4.67;84.06
65291;SHT30;51893;59.754;10.110;2022-12-07T05:54:02;-4.64;83.96
65291;SHT30;51893;59.754;10.110;2022-12-07T05:56:29;-4.63;83.77
65291;SHT30;51893;59.754;10.110;2022-12-07T05:58:55;-4.72;83.61
65291;SHT30;51893;59.754;10.110;2022-12-07T06:01:41;-4.71;83.59
65291;SHT30;51893;59.754;10.110;2022-12-07T06:04:07;-4.69;83.45
65291;SHT30;51893;59.754;10.110;2022-12-07T06:06:34;-4.70;83.31
65291;SHT30;51893;59.754;10.110;2022-12-07T06:09:01;-4.72;83.20
65291;SHT30;51893;59.754;10.110;2022-12-07T06:11:29;-4.75;83.20
65291;SHT30;51893;59.754;10.110;2022-12-07T06:14:14;-4.83;83.19
65291;SHT30;51893;59.754;10.110;2022-12-07T06:16:41;-4.79;83.18
65291;SHT30;51893;59.754;10.110;2022-12-07T06:19:08;-4.77;83.20
65291;SHT30;51893;59.754;10.110;2022-12-07T06:21:34;-4.77;83.12
65291;SHT30;51893;59.754;10.110;2022-12-07T06:24:01;-4.80;83.17
65291;SHT30;51893;59.754;10.110;2022-12-07T06:26:28;-4.76;83.08
65291;SHT30;51893;59.754;10.110;2022-12-07T06:28:54;-4.72;82.91
65291;SHT30;51893;59.754;10.110;2022-12-07T06:31:21;-4.68;82.69
65291;SHT30;51893;59.754;10.110;2022-12-07T06:33:48;-4.67;82.47
65291;SHT30;51893;59.754;10.110;2022-12-07T06:36:15;-4.70;82.27
65291;SHT30;51893;59.754;10.110;2022-12-07T06:38:42;-4.76;82.21
65291;SHT30;51893;59.754;10.110;2022-12-07T06:41:08;-4.78;82.25
65291;SHT30;51893;59.754;10.110;2022-12-07T06:43:35;-4.81;82.22
65291;SHT30;51893;59.754;10.110;2022-12-07T06:46:01;-4.89;82.20
65291;SHT30;51893;59.754;10.110;2022-12-07T06:48:28;-4.97;82.29
65291;SHT30;51893;59.754;10.110;2022-12-07T06:50:55;-4.97;82.32
65291;SHT30;51893;59.754;10.110;2022-12-07T06:53:25;-5.01;82.39
65291;SHT30;51893;59.754;10.110;2022-12-07T06:55:51;-5.13;82.49
65291;SHT30;51893;59.754;10.110;2022-12-07T06:58:18;-5.26;82.71
65291;SHT30;51893;59.754;10.110;2022-12-07T07:00:44;-5.31;82.90
65291;SHT30;51893;59.754;10.110;2022-12-07T07:03:12;-5.33;82.99
65291;SHT30;51893;59.754;10.110;2022-12-07T07:05:39;-5.32;82.94
65291;SHT30;51893;59.754;10.110;2022-12-07T07:08:05;-5.28;82.83
65291;SHT30;51893;59.754;10.110;2022-12-07T07:10:49;-5.30;82.80
65291;SHT30;51893;59.754;10.110;2022-12-07T07:13:16;-5.28;82.77
65291;SHT30;51893;59.754;10.110;2022-12-07T07:15:42;-5.29;82.64
65291;SHT30;51893;59.754;10.110;2022-12-07T07:18:09;-5.35;82.66
65291;SHT30;51893;59.754;10.110;2022-12-07T07:20:37;-5.45;82.68
65291;SHT30;51893;59.754;10.110;2022-12-07T07:23:05;-5.51;82.82
65291;SHT30;51893;59.754;10.110;2022-12-07T07:25:33;-5.58;83.00
65291;SHT30;51893;59.754;10.110;2022-12-07T07:28:00;-5.64;83.11
65291;SHT30;51893;59.754;10.110;2022-12-07T07:30:27;-5.66;83.20
65291;SHT30;51893;59.754;10.110;2022-12-07T07:32:58;-5.72;83.24
65291;SHT30;51893;59.754;10.110;2022-12-07T07:35:30;-5.80;83.40
65291;SHT30;51893;59.754;10.110;2022-12-07T07:37:58;-5.84;83.41
65291;SHT30;51893;59.754;10.110;2022-12-07T07:40:26;-5.84;83.44
65291;SHT30;51893;59.754;10.110;2022-12-07T07:42:54;-5.86;83.45
65291;SHT30;51893;59.754;10.110;2022-12-07T07:45:23;-5.88;83.50
65291;SHT30;51893;59.754;10.110;2022-12-07T07:47:51;-5.90;83.44
65291;SHT30;51893;59.754;10.110;2022-12-07T07:50:19;-5.99;83.51
65291;SHT30;51893;59.754;10.110;2022-12-07T07:52:47;-6.03;83.69
65291;SHT30;51893;59.754;10.110;2022-12-07T07:55:14;-5.99;83.70
65291;SHT30;51893;59.754;10.110;2022-12-07T07:57:45;-5.92;83.60
65291;SHT30;51893;59.754;10.110;2022-12-07T08:00:20;-5.90;83.41
65291;SHT30;51893;59.754;10.110;2022-12-07T08:02:48;-5.89;83.38
65291;SHT30;51893;59.754;10.110;2022-12-07T08:05:14;-5.90;83.21
65291;SHT30;51893;59.754;10.110;2022-12-07T08:07:41;-5.85;83.20
65291;SHT30;51893;59.754;10.110;2022-12-07T08:10:09;-5.85;83.12
65291;SHT30;51893;59.754;10.110;2022-12-07T08:12:39;-5.83;83.17
65291;SHT30;51893;59.754;10.110;2022-12-07T08:15:28;-5.81;83.18
65291;SHT30;51893;59.754;10.110;2022-12-07T08:17:57;-5.76;83.09
65291;SHT30;51893;59.754;10.110;2022-12-07T08:20:25;-5.77;82.99
65291;SHT30;51893;59.754;10.110;2022-12-07T08:22:52;-5.73;82.93
65291;SHT30;51893;59.754;10.110;2022-12-07T08:25:21;-5.69;82.82
65291;SHT30;51893;59.754;10.110;2022-12-07T08:27:48;-5.67;82.63
65291;SHT30;51893;59.754;10.110;2022-12-07T08:30:16;-5.67;82.49
65291;SHT30;51893;59.754;10.110;2022-12-07T08:32:44;-5.69;82.49
65291;SHT30;51893;59.754;10.110;2022-12-07T08:35:12;-5.66;82.49
65291;SHT30;51893;59.754;10.110;2022-12-07T08:37:40;-5.70;82.24
65291;SHT30;51893;59.754;10.110;2022-12-07T08:40:08;-5.77;82.30
65291;SHT30;51893;59.754;10.110;2022-12-07T08:42:36;-5.80;82.28
65291;SHT30;51893;59.754;10.110;2022-12-07T08:45:07;-5.83;82.11
65291;SHT30;51893;59.754;10.110;2022-12-07T08:47:52;-5.84;81.99
65291;SHT30;51893;59.754;10.110;2022-12-07T08:50:28;-5.84;82.09
65291;SHT30;51893;59.754;10.110;2022-12-07T08:52:58;-5.82;82.14
65291;SHT30;51893;59.754;10.110;2022-12-07T08:55:26;-5.86;82.04
65291;SHT30;51893;59.754;10.110;2022-12-07T08:57:55;-5.85;82.08
65291;SHT30;51893;59.754;10.110;2022-12-07T09:00:25;-5.85;82.01
65291;SHT30;51893;59.754;10.110;2022-12-07T09:02:53;-5.85;81.95
65291;SHT30;51893;59.754;10.110;2022-12-07T09:05:20;-5.90;81.87
65291;SHT30;51893;59.754;10.110;2022-12-07T09:07:48;-5.84;81.93
65291;SHT30;51893;59.754;10.110;2022-12-07T09:10:21;-5.89;81.71
65291;SHT30;51893;59.754;10.110;2022-12-07T09:12:51;-5.91;81.75
65291;SHT30;51893;59.754;10.110;2022-12-07T09:15:17;-5.88;81.74
65291;SHT30;51893;59.754;10.110;2022-12-07T09:17:45;-5.87;81.70
65291;SHT30;51893;59.754;10.110;2022-12-07T09:20:12;-5.81;81.62
65291;SHT30;51893;59.754;10.110;2022-12-07T09:22:39;-5.72;81.57
65291;SHT30;51893;59.754;10.110;2022-12-07T09:25:05;-5.63;81.34
65291;SHT30;51893;59.754;10.110;2022-12-07T09:27:32;-5.54;81.17
65291;SHT30;51893;59.754;10.110;2022-12-07T09:29:59;-5.52;80.69
65291;SHT30;51893;59.754;10.110;2022-12-07T09:32:26;-5.57;80.63
65291;SHT30;51893;59.754;10.110;2022-12-07T09:34:52;-5.57;80.84
65291;SHT30;51893;59.754;10.110;2022-12-07T09:37:19;-5.60;80.77
65291;SHT30;51893;59.754;10.110;2022-12-07T09:39:46;-5.60;80.83
65291;SHT30;51893;59.754;10.110;2022-12-07T09:42:29;-5.59;80.71
65291;SHT30;51893;59.754;10.110;2022-12-07T09:45:06;-5.67;80.74
65291;SHT30;51893;59.754;10.110;2022-12-07T09:47:40;-5.73;80.89
65291;SHT30;51893;59.754;10.110;2022-12-07T09:50:11;-5.78;81.04
65291;SHT30;51893;59.754;10.110;2022-12-07T09:52:45;-5.78;81.10
65291;SHT30;51893;59.754;10.110;2022-12-07T09:55:30;-5.79;81.12
65291;SHT30;51893;59.754;10.110;2022-12-07T09:57:58;-5.75;81.22
65291;SHT30;51893;59.754;10.110;2022-12-07T10:00:25;-5.80;81.13
65291;SHT30;51893;59.754;10.110;2022-12-07T10:02:57;-5.84;81.13
65291;SHT30;51893;59.754;10.110;2022-12-07T10:08:00;-5.92;81.08
65291;SHT30;51893;59.754;10.110;2022-12-07T10:10:31;-5.95;81.11
65291;SHT30;51893;59.754;10.110;2022-12-07T10:13:05;-5.93;81.17
65291;SHT30;51893;59.754;10.110;2022-12-07T10:15:45;-5.99;81.23
65291;SHT30;51893;59.754;10.110;2022-12-07T10:18:25;-6.06;81.45
65291;SHT30;51893;59.754;10.110;2022-12-07T10:21:15;-6.11;81.66
65291;SHT30;51893;59.754;10.110;2022-12-07T10:26:49;-6.09;81.80
65291;SHT30;51893;59.754;10.110;2022-12-07T10:32:06;-5.97;81.90
65291;SHT30;51893;59.754;10.110;2022-12-07T10:37:56;-5.87;81.81
65291;SHT30;51893;59.754;10.110;2022-12-07T10:48:34;-5.77;81.50
65291;SHT30;51893;59.754;10.110;2022-12-07T10:51:55;-5.78;81.34
65291;SHT30;51893;59.754;10.110;2022-12-07T11:00:23;-5.76;81.37
65291;SHT30;51893;59.754;10.110;2022-12-07T11:26:32;-5.12;81.07
65291;SHT30;51893;59.754;10.110;2022-12-07T11:32:21;-5.11;80.59
65291;SHT30;51893;59.754;10.110;2022-12-07T11:35:51;-5.05;80.42
65291;SHT30;51893;59.754;10.110;2022-12-07T11:38:33;-4.97;80.46
65291;SHT30;51893;59.754;10.110;2022-12-07T11:41:12;-4.88;80.46
65291;SHT30;51893;59.754;10.110;2022-12-07T11:43:59;-4.80;80.48
65291;SHT30;51893;59.754;10.110;2022-12-07T11:46:41;-4.72;80.50
65291;SHT30;51893;59.754;10.110;2022-12-07T11:50:05;-4.63;80.50
65291;SHT30;51893;59.754;10.110;2022-12-07T11:53:01;-4.50;80.41
65291;SHT30;51893;59.754;10.110;2022-12-07T11:55:52;-4.42;80.29
65291;SHT30;51893;59.754;10.110;2022-12-07T11:58:44;-4.38;80.06
65291;SHT30;51893;59.754;10.110;2022-12-07T12:03:52;-4.36;79.67
65291;SHT30;51893;59.754;10.110;2022-12-07T12:06:39;-4.32;79.49
65291;SHT30;51893;59.754;10.110;2022-12-07T12:09:15;-4.24;79.49
65291;SHT30;51893;59.754;10.110;2022-12-07T12:18:26;-3.88;79.00
65291;SHT30;51893;59.754;10.110;2022-12-07T12:21:07;-3.79;79.07
65291;SHT30;51893;59.754;10.110;2022-12-07T12:24:12;-3.72;78.94
65291;SHT30;51893;59.754;10.110;2022-12-07T12:26:50;-3.68;78.88
65291;SHT30;51893;59.754;10.110;2022-12-07T12:29:31;-3.64;78.77
65291;SHT30;51893;59.754;10.110;2022-12-07T12:41:00;-3.62;78.28
65291;SHT30;51893;59.754;10.110;2022-12-07T12:43:45;-3.63;78.08
65291;SHT30;51893;59.754;10.110;2022-12-07T12:51:43;-3.65;76.93
65291;SHT30;51893;59.754;10.110;2022-12-07T12:54:20;-3.62;77.07
65291;SHT30;51893;59.754;10.110;2022-12-07T12:56:55;-3.57;77.02
65291;SHT30;51893;59.754;10.110;2022-12-07T12:59:36;-3.52;76.77
65291;SHT30;51893;59.754;10.110;2022-12-07T13:29:13;-3.44;76.09
65291;SHT30;51893;59.754;10.110;2022-12-07T13:31:56;-3.43;76.21
65291;SHT30;51893;59.754;10.110;2022-12-07T13:34:32;-3.42;76.44
65291;SHT30;51893;59.754;10.110;2022-12-07T13:44:58;-3.38;76.75
65291;SHT30;51893;59.754;10.110;2022-12-07T13:47:48;-3.36;76.79
65291;SHT30;51893;59.754;10.110;2022-12-07T13:50:32;-3.33;76.83
65291;SHT30;51893;59.754;10.110;2022-12-07T13:52:59;-3.32;76.86
65291;SHT30;51893;59.754;10.110;2022-12-07T13:55:27;-3.33;77.05
65291;SHT30;51893;59.754;10.110;2022-12-07T13:57:55;-3.35;77.15
65291;SHT30;51893;59.754;10.110;2022-12-07T14:00:26;-3.38;77.22
65291;SHT30;51893;59.754;10.110;2022-12-07T14:03:00;-3.39;77.38
65291;SHT30;51893;59.754;10.110;2022-12-07T14:05:31;-3.41;77.56
65291;SHT30;51893;59.754;10.110;2022-12-07T14:08:05;-3.43;77.89
65291;SHT30;51893;59.754;10.110;2022-12-07T14:16:00;-3.40;78.34
65291;SHT30;51893;59.754;10.110;2022-12-07T14:18:54;-3.35;78.39
65291;SHT30;51893;59.754;10.110;2022-12-07T14:21:28;-3.39;78.30
65291;SHT30;51893;59.754;10.110;2022-12-07T14:24:08;-3.43;78.40
65291;SHT30;51893;59.754;10.110;2022-12-07T14:26:45;-3.45;78.50
65291;SHT30;51893;59.754;10.110;2022-12-07T14:31:58;-3.45;78.55
65291;SHT30;51893;59.754;10.110;2022-12-07T14:34:57;-3.42;78.59
65291;SHT30;51893;59.754;10.110;2022-12-07T14:37:37;-3.40;78.60
65291;SHT30;51893;59.754;10.110;2022-12-07T14:40:06;-3.40;78.61
65291;SHT30;51893;59.754;10.110;2022-12-07T14:42:37;-3.40;78.66
65291;SHT30;51893;59.754;10.110;2022-12-07T14:45:12;-3.40;78.63
65291;SHT30;51893;59.754;10.110;2022-12-07T14:47:45;-3.45;78.51
65291;SHT30;51893;59.754;10.110;2022-12-07T14:50:37;-3.51;78.50
65291;SHT30;51893;59.754;10.110;2022-12-07T14:53:33;-3.54;78.36
65291;SHT30;51893;59.754;10.110;2022-12-07T14:56:06;-3.60;78.29
65291;SHT30;51893;59.754;10.110;2022-12-07T14:58:34;-3.63;78.30
65291;SHT30;51893;59.754;10.110;2022-12-07T15:01:01;-3.62;78.47
65291;SHT30;51893;59.754;10.110;2022-12-07T15:03:27;-3.61;78.67
65291;SHT30;51893;59.754;10.110;2022-12-07T15:05:55;-3.56;78.83
65291;SHT30;51893;59.754;10.110;2022-12-07T15:08:21;-3.56;78.82
65291;SHT30;51893;59.754;10.110;2022-12-07T15:10:48;-3.59;78.80
65291;SHT30;51893;59.754;10.110;2022-12-07T15:13:15;-3.61;78.93
65291;SHT30;51893;59.754;10.110;2022-12-07T15:16:01;-3.63;78.87
65291;SHT30;51893;59.754;10.110;2022-12-07T15:18:27;-3.68;78.83
65291;SHT30;51893;59.754;10.110;2022-12-07T15:20:54;-3.68;79.02
65291;SHT30;51893;59.754;10.110;2022-12-07T15:23:20;-3.70;79.18
65291;SHT30;51893;59.754;10.110;2022-12-07T15:25:47;-3.70;79.30
65291;SHT30;51893;59.754;10.110;2022-12-07T15:28:15;-3.72;79.40
65291;SHT30;51893;59.754;10.110;2022-12-07T15:30:43;-3.71;79.34
65291;SHT30;51893;59.754;10.110;2022-12-07T15:33:12;-3.73;79.09
65291;SHT30;51893;59.754;10.110;2022-12-07T15:35:40;-3.80;78.93
65291;SHT30;51893;59.754;10.110;2022-12-07T15:38:10;-3.84;79.15
65291;SHT30;51893;59.754;10.110;2022-12-07T15:40:37;-3.86;79.39
65291;SHT30;51893;59.754;10.110;2022-12-07T15:43:04;-3.89;79.46
65291;SHT30;51893;59.754;10.110;2022-12-07T15:45:31;-3.89;79.61
65291;SHT30;51893;59.754;10.110;2022-12-07T15:47:57;-3.90;79.75
65291;SHT30;51893;59.754;10.110;2022-12-07T15:50:46;-3.91;79.92
65291;SHT30;51893;59.754;10.110;2022-12-07T15:53:12;-3.91;80.08
65291;SHT30;51893;59.754;10.110;2022-12-07T15:55:39;-3.94;80.18
65291;SHT30;51893;59.754;10.110;2022-12-07T15:58:07;-3.98;80.29
65291;SHT30;51893;59.754;10.110;2022-12-07T16:00:34;-4.00;80.27
65291;SHT30;51893;59.754;10.110;2022-12-07T16:03:00;-3.99;80.21
65291;SHT30;51893;59.754;10.110;2022-12-07T16:05:28;-3.94;80.10
65291;SHT30;51893;59.754;10.110;2022-12-07T16:07:54;-3.92;79.90
65291;SHT30;51893;59.754;10.110;2022-12-07T16:10:21;-3.95;79.74
65291;SHT30;51893;59.754;10.110;2022-12-07T16:12:48;-3.97;79.68
65291;SHT30;51893;59.754;10.110;2022-12-07T16:15:17;-4.01;79.67
65291;SHT30;51893;59.754;10.110;2022-12-07T16:17:50;-4.09;79.75
65291;SHT30;51893;59.754;10.110;2022-12-07T16:20:17;-4.13;79.89
65291;SHT30;51893;59.754;10.110;2022-12-07T16:22:44;-4.13;79.93
65291;SHT30;51893;59.754;10.110;2022-12-07T16:25:10;-4.17;80.14
65291;SHT30;51893;59.754;10.110;2022-12-07T16:27:37;-4.19;80.32
65291;SHT30;51893;59.754;10.110;2022-12-07T16:30:04;-4.18;80.36
65291;SHT30;51893;59.754;10.110;2022-12-07T16:32:32;-4.20;80.39
65291;SHT30;51893;59.754;10.110;2022-12-07T16:34:59;-4.22;80.34
65291;SHT30;51893;59.754;10.110;2022-12-07T16:37:26;-4.26;80.30
65291;SHT30;51893;59.754;10.110;2022-12-07T16:39:53;-4.28;80.24
65291;SHT30;51893;59.754;10.110;2022-12-07T16:42:20;-4.35;80.25
65291;SHT30;51893;59.754;10.110;2022-12-07T16:44:46;-4.42;80.33
65291;SHT30;51893;59.754;10.110;2022-12-07T16:47:13;-4.48;80.45
65291;SHT30;51893;59.754;10.110;2022-12-07T16:49:40;-4.51;80.46
65291;SHT30;51893;59.754;10.110;2022-12-07T16:52:06;-4.54;80.61
65291;SHT30;51893;59.754;10.110;2022-12-07T16:54:48;-4.56;80.65
65291;SHT30;51893;59.754;10.110;2022-12-07T16:57:16;-4.62;80.67
65291;SHT30;51893;59.754;10.110;2022-12-07T16:59:49;-4.68;80.77
65291;SHT30;51893;59.754;10.110;2022-12-07T17:02:18;-4.76;81.02
65291;SHT30;51893;59.754;10.110;2022-12-07T17:04:46;-4.83;81.16
65291;SHT30;51893;59.754;10.110;2022-12-07T17:07:13;-4.87;81.22
65291;SHT30;51893;59.754;10.110;2022-12-07T17:09:40;-4.91;81.31
65291;SHT30;51893;59.754;10.110;2022-12-07T17:12:06;-4.94;81.33
65291;SHT30;51893;59.754;10.110;2022-12-07T17:14:33;-4.97;81.30
65291;SHT30;51893;59.754;10.110;2022-12-07T17:17:18;-4.99;81.39
65291;SHT30;51893;59.754;10.110;2022-12-07T17:19:45;-4.99;81.43
65291;SHT30;51893;59.754;10.110;2022-12-07T17:22:12;-5.00;81.52
65291;SHT30;51893;59.754;10.110;2022-12-07T17:24:39;-5.03;81.69
65291;SHT30;51893;59.754;10.110;2022-12-07T17:27:05;-5.08;81.79
65291;SHT30;51893;59.754;10.110;2022-12-07T17:29:32;-5.07;81.89
65291;SHT30;51893;59.754;10.110;2022-12-07T17:31:58;-5.07;81.91
65291;SHT30;51893;59.754;10.110;2022-12-07T17:34:25;-5.09;81.90
65291;SHT30;51893;59.754;10.110;2022-12-07T17:36:51;-5.14;81.98
65291;SHT30;51893;59.754;10.110;2022-12-07T17:39:22;-5.20;82.10
65291;SHT30;51893;59.754;10.110;2022-12-07T17:41:49;-5.23;82.23
65291;SHT30;51893;59.754;10.110;2022-12-07T17:44:34;-5.24;82.32
65291;SHT30;51893;59.754;10.110;2022-12-07T17:47:00;-5.26;82.38
65291;SHT30;51893;59.754;10.110;2022-12-07T17:49:28;-5.27;82.30
65291;SHT30;51893;59.754;10.110;2022-12-07T17:51:56;-5.33;82.27
65291;SHT30;51893;59.754;10.110;2022-12-07T17:54:41;-5.35;82.28
65291;SHT30;51893;59.754;10.110;2022-12-07T17:57:08;-5.34;82.31
65291;SHT30;51893;59.754;10.110;2022-12-07T17:59:35;-5.31;82.25
65291;SHT30;51893;59.754;10.110;2022-12-07T18:02:01;-5.30;82.19
65291;SHT30;51893;59.754;10.110;2022-12-07T18:04:29;-5.34;82.10
65291;SHT30;51893;59.754;10.110;2022-12-07T18:06:55;-5.37;82.10
65291;SHT30;51893;59.754;10.110;2022-12-07T18:09:22;-5.38;82.08